Time,TemperatureF,DewpointF,PressureIn,WindDirection,WindDirectionDegrees,WindSpeedMPH,WindSpeedGustMPH,Humidity,HourlyPrecipIn,Conditions,Clouds,dailyrainin,SoftwareType,DateUTC
2013-07-27 00:01:00,64.5,60.2,29.83,WNW,293,0.0,0.0,86,0.00,,,0.00,WeatherCatV1.11B39,2013-07-27 04:01:00,
2013-07-27 00:06:00,64.4,60.4,29.83,WNW,293,0.0,0.0,87,0.00,,,0.00,WeatherCatV1.11B39,2013-07-27 04:06:00,
2013-07-27 00:11:00,64.2,60.2,29.83,WNW,293,0.0,0.0,87,0.00,,,0.00,WeatherCatV1.11B39,2013-07-27 04:11:00,
2013-07-27 00:16:00,64.0,60.0,29.83,WNW,293,0.0,0.0,87,0.00,,,0.00,WeatherCatV1.11B39,2013-07-27 04:16:00,
2013-07-27 00:21:00,63.7,59.8,29.83,WNW,293,0.0,0.0,87,0.00,,,0.00,WeatherCatV1.11B39,2013-07-27 04:21:00,
2013-07-27 00:26:00,63.5,59.9,29.83,WNW,293,0.0,0.0,88,0.00,,,0.00,WeatherCatV1.11B39,2013-07-27 04:26:00,
2013-07-27 00:31:00,63.2,59.6,29.83,WNW,293,0.0,0.0,88,0.00,,,0.00,WeatherCatV1.11B39,2013-07-27 04:31:00,
2013-07-27 00:36:00,63.0,59.4,29.83,WNW,293,0.0,0.0,88,0.00,,,0.00,WeatherCatV1.11B39,2013-07-27 04:36:00,
2013-07-27 00:41:00,63.1,59.5,29.83,WNW,293,0.0,0.0,88,0.00,,,0.00,WeatherCatV1.11B39,2013-07-27 04:41:00,
2013-07-27 00:46:00,62.4,58.5,29.83,WNW,293,0.0,0.0,87,0.00,,,0.00,WeatherCatV1.11B39,2013-07-27 04:46:00,
2013-07-27 00:51:00,62.1,58.8,29.83,WNW,293,0.0,0.0,89,0.00,,,0.00,WeatherCatV1.11B39,2013-07-27 04:51:00,
2013-07-27 00:56:00,62.0,59.0,29.83,WNW,293,0.0,0.0,90,0.00,,,0.00,WeatherCatV1.11B39,2013-07-27 04:56:00,
2013-07-27 01:01:00,61.8,58.8,29.83,WNW,293,0.0,0.0,90,0.00,,,0.00,WeatherCatV1.11B39,2013-07-27 05:01:00,
2013-07-27 01:06:00,61.7,58.7,29.83,WNW,293,0.0,0.0,90,0.00,,,0.00,WeatherCatV1.11B39,2013-07-27 05:06:00,
2013-07-27 01:11:00,61.5,58.8,29.83,WNW,293,0.0,0.0,91,0.00,,,0.00,WeatherCatV1.11B39,2013-07-27 05:11:00,
2013-07-27 01:16:00,61.5,58.5,29.83,WNW,293,0.0,0.0,90,0.00,,,0.00,WeatherCatV1.11B39,2013-07-27 05:16:00,
2013-07-27 01:21:00,61.3,58.3,29.83,WNW,293,0.0,0.0,90,0.00,,,0.00,WeatherCatV1.11B39,2013-07-27 05:21:00,
2013-07-27 01:26:00,61.2,58.5,29.83,WNW,293,0.0,0.0,91,0.00,,,0.00,WeatherCatV1.11B39,2013-07-27 05:26:00,
2013-07-27 01:31:00,61.2,58.5,29.83,WNW,293,0.0,0.0,91,0.00,,,0.00,WeatherCatV1.11B39,2013-07-27 05:31:00,
2013-07-27 01:36:00,61.2,58.9,29.83,WNW,293,0.0,0.0,92,0.00,,,0.00,WeatherCatV1.11B39,2013-07-27 05:36:00,
2013-07-27 01:41:00,61.2,58.9,29.83,WNW,293,0.0,0.0,92,0.00,,,0.00,WeatherCatV1.11B39,2013-07-27 05:41:00,
2013-07-27 01:46:00,61.0,58.7,29.83,WNW,293,0.0,0.0,92,0.00,,,0.00,WeatherCatV1.11B39,2013-07-27 05:46:00,
2013-07-27 01:51:00,60.9,58.6,29.83,WNW,293,0.0,0.0,92,0.00,,,0.00,WeatherCatV1.11B39,2013-07-27 05:51:00,
2013-07-27 01:56:00,60.7,58.4,29.83,WNW,293,0.0,0.0,92,0.00,,,0.00,WeatherCatV1.11B39,2013-07-27 05:56:00,
2013-07-27 02:01:00,60.7,58.4,29.83,WNW,293,0.0,0.0,92,0.00,,,0.00,WeatherCatV1.11B39,2013-07-27 06:01:00,
2013-07-27 02:06:00,60.6,58.3,29.83,WNW,293,0.0,0.0,92,0.00,,,0.00,WeatherCatV1.11B39,2013-07-27 06:06:00,
2013-07-27 02:11:00,60.9,58.9,29.83,WNW,293,0.0,0.0,93,0.00,,,0.00,WeatherCatV1.11B39,2013-07-27 06:11:00,
2013-07-27 02:16:00,61.3,59.6,29.83,WNW,293,4.0,4.0,94,0.00,,,0.00,WeatherCatV1.11B39,2013-07-27 06:16:00,
2013-07-27 02:21:00,61.5,59.5,29.83,WNW,293,0.0,0.0,93,0.00,,,0.00,WeatherCatV1.11B39,2013-07-27 06:21:00,
2013-07-27 02:26:00,62.1,59.7,29.83,WNW,293,0.0,0.0,92,0.00,,,0.00,WeatherCatV1.11B39,2013-07-27 06:26:00,
2013-07-27 02:31:00,62.4,59.4,29.82,WNW,292,0.0,0.0,90,0.00,,,0.00,WeatherCatV1.11B39,2013-07-27 06:31:00,
2013-07-27 02:36:00,62.6,59.6,29.83,WNW,289,0.0,0.0,90,0.00,,,0.00,WeatherCatV1.11B39,2013-07-27 06:36:00,
2013-07-27 02:41:00,62.6,59.0,29.83,WNW,291,0.0,0.0,88,0.00,,,0.00,WeatherCatV1.11B39,2013-07-27 06:41:00,
2013-07-27 02:46:00,62.6,59.0,29.83,WNW,290,4.0,5.0,88,0.00,,,0.00,WeatherCatV1.11B39,2013-07-27 06:46:00,
2013-07-27 02:51:00,62.7,58.4,29.83,WNW,289,0.0,0.0,86,0.00,,,0.00,WeatherCatV1.11B39,2013-07-27 06:51:00,
2013-07-27 02:56:00,62.7,58.4,29.83,WNW,290,0.0,0.0,86,0.00,,,0.00,WeatherCatV1.11B39,2013-07-27 06:56:00,
2013-07-27 03:01:00,62.9,58.3,29.83,WNW,289,0.0,0.0,85,0.00,,,0.00,WeatherCatV1.11B39,2013-07-27 07:01:00,
2013-07-27 03:06:00,62.6,58.0,29.83,WNW,289,0.0,0.0,85,0.00,,,0.00,WeatherCatV1.11B39,2013-07-27 07:06:00,
2013-07-27 03:11:00,62.6,57.7,29.83,WNW,290,0.0,0.0,84,0.00,,,0.00,WeatherCatV1.11B39,2013-07-27 07:11:00,
2013-07-27 03:16:00,62.4,57.8,29.83,WNW,289,0.0,0.0,85,0.00,,,0.00,WeatherCatV1.11B39,2013-07-27 07:16:00,
2013-07-27 03:21:00,62.3,57.7,29.83,WNW,289,0.0,0.0,85,0.00,,,0.00,WeatherCatV1.11B39,2013-07-27 07:21:00,
2013-07-27 03:26:00,62.3,58.1,29.83,WNW,290,0.0,0.0,86,0.00,,,0.00,WeatherCatV1.11B39,2013-07-27 07:26:00,
2013-07-27 03:31:00,62.1,57.9,29.83,WNW,290,0.0,0.0,86,0.00,,,0.00,WeatherCatV1.11B39,2013-07-27 07:31:00,
2013-07-27 03:36:00,62.3,58.1,29.83,WNW,291,0.0,0.0,86,0.00,,,0.00,WeatherCatV1.11B39,2013-07-27 07:36:00,
2013-07-27 03:41:00,62.3,58.1,29.83,WNW,290,0.0,0.0,86,0.00,,,0.00,WeatherCatV1.11B39,2013-07-27 07:41:00,
2013-07-27 03:46:00,62.1,57.9,29.83,WNW,290,0.0,0.0,86,0.00,,,0.00,WeatherCatV1.11B39,2013-07-27 07:46:00,
2013-07-27 03:51:00,62.1,57.9,29.83,WNW,289,0.0,0.0,86,0.00,,,0.00,WeatherCatV1.11B39,2013-07-27 07:51:00,
2013-07-27 03:56:00,62.1,57.9,29.83,WNW,289,0.0,0.0,86,0.00,,,0.00,WeatherCatV1.11B39,2013-07-27 07:56:00,
2013-07-27 04:01:00,62.3,58.4,29.83,WNW,290,0.0,0.0,87,0.00,,,0.00,WeatherCatV1.11B39,2013-07-27 08:01:00,
2013-07-27 04:06:00,62.1,58.2,29.83,WNW,290,0.0,0.0,87,0.00,,,0.00,WeatherCatV1.11B39,2013-07-27 08:06:00,
2013-07-27 04:11:00,62.0,58.1,29.83,WNW,289,0.0,3.0,87,0.00,,,0.00,WeatherCatV1.11B39,2013-07-27 08:11:00,
2013-07-27 04:16:00,61.8,58.2,29.83,WNW,293,0.0,0.0,88,0.00,,,0.00,WeatherCatV1.11B39,2013-07-27 08:16:00,
2013-07-27 04:21:00,61.8,58.2,29.83,WNW,292,0.0,0.0,88,0.00,,,0.00,WeatherCatV1.11B39,2013-07-27 08:21:00,
2013-07-27 04:26:00,61.5,57.9,29.83,WNW,292,1.0,4.0,88,0.00,,,0.00,WeatherCatV1.11B39,2013-07-27 08:26:00,
2013-07-27 04:31:00,61.5,57.9,29.83,WNW,291,0.0,0.0,88,0.00,,,0.00,WeatherCatV1.11B39,2013-07-27 08:31:00,
2013-07-27 04:36:00,61.3,57.7,29.83,WNW,291,0.0,0.0,88,0.00,,,0.00,WeatherCatV1.11B39,2013-07-27 08:36:00,
2013-07-27 04:41:00,61.4,57.8,29.83,WNW,291,0.0,0.0,88,0.00,,,0.00,WeatherCatV1.11B39,2013-07-27 08:41:00,
2013-07-27 04:46:00,61.3,57.7,29.83,WNW,291,0.0,0.0,88,0.00,,,0.00,WeatherCatV1.11B39,2013-07-27 08:46:00,
2013-07-27 04:51:00,61.4,57.8,29.83,WNW,291,3.0,4.0,88,0.00,,,0.00,WeatherCatV1.11B39,2013-07-27 08:51:00,
2013-07-27 04:56:00,61.3,58.3,29.83,WNW,291,0.0,1.0,90,0.00,,,0.00,WeatherCatV1.11B39,2013-07-27 08:56:00,
2013-07-27 05:01:00,61.3,58.3,29.83,WNW,291,0.0,0.0,90,0.00,,,0.00,WeatherCatV1.11B39,2013-07-27 09:01:00,
2013-07-27 05:06:00,61.3,58.3,29.83,WNW,291,0.0,0.0,90,0.00,,,0.00,WeatherCatV1.11B39,2013-07-27 09:06:00,
2013-07-27 05:11:00,61.5,58.5,29.83,WNW,291,0.0,0.0,90,0.00,,,0.00,WeatherCatV1.11B39,2013-07-27 09:11:00,
2013-07-27 05:16:00,61.7,58.7,29.84,WNW,291,0.0,0.0,90,0.00,,,0.00,WeatherCatV1.11B39,2013-07-27 09:16:00,
2013-07-27 05:21:00,61.7,58.7,29.84,WNW,291,0.0,0.0,90,0.00,,,0.00,WeatherCatV1.11B39,2013-07-27 09:21:00,
2013-07-27 05:26:00,61.5,58.2,29.83,WNW,291,0.0,0.0,89,0.00,,,0.00,WeatherCatV1.11B39,2013-07-27 09:26:00,
2013-07-27 05:31:00,61.5,58.2,29.84,WNW,291,0.0,0.0,89,0.00,,,0.00,WeatherCatV1.11B39,2013-07-27 09:31:00,
2013-07-27 05:36:00,61.2,57.9,29.85,WNW,291,0.0,0.0,89,0.00,,,0.00,WeatherCatV1.11B39,2013-07-27 09:36:00,
2013-07-27 05:41:00,61.2,57.9,29.84,WNW,291,0.0,0.0,89,0.00,,,0.00,WeatherCatV1.11B39,2013-07-27 09:41:00,
2013-07-27 05:46:00,61.0,58.0,29.85,WNW,291,0.0,0.0,90,0.00,,,0.00,WeatherCatV1.11B39,2013-07-27 09:46:00,
2013-07-27 05:51:00,60.9,57.9,29.84,WNW,291,0.0,0.0,90,0.00,,,0.00,WeatherCatV1.11B39,2013-07-27 09:51:00,
2013-07-27 05:56:00,60.9,57.9,29.85,WNW,291,0.0,0.0,90,0.00,,,0.00,WeatherCatV1.11B39,2013-07-27 09:56:00,
2013-07-27 06:01:00,60.7,57.4,29.85,WNW,291,0.0,0.0,89,0.00,,,0.00,WeatherCatV1.11B39,2013-07-27 10:01:00,
2013-07-27 06:06:00,60.7,57.7,29.85,WNW,291,0.0,0.0,90,0.00,,,0.00,WeatherCatV1.11B39,2013-07-27 10:06:00,
2013-07-27 06:11:00,60.6,57.6,29.84,WNW,291,0.0,0.0,90,0.00,,,0.00,WeatherCatV1.11B39,2013-07-27 10:11:00,
2013-07-27 06:16:00,60.6,57.6,29.85,WNW,291,0.0,0.0,90,0.00,,,0.00,WeatherCatV1.11B39,2013-07-27 10:16:00,
2013-07-27 06:21:00,60.6,58.0,29.85,WNW,291,0.0,0.0,91,0.00,,,0.00,WeatherCatV1.11B39,2013-07-27 10:21:00,
2013-07-27 06:26:00,60.7,58.1,29.85,WNW,291,0.0,0.0,91,0.00,,,0.00,WeatherCatV1.11B39,2013-07-27 10:26:00,
2013-07-27 06:31:00,60.7,58.1,29.85,WNW,291,0.0,2.0,91,0.00,,,0.00,WeatherCatV1.11B39,2013-07-27 10:31:00,
2013-07-27 06:36:00,60.7,58.1,29.85,WNW,291,0.0,0.0,91,0.00,,,0.00,WeatherCatV1.11B39,2013-07-27 10:36:00,
2013-07-27 06:41:00,61.0,58.3,29.85,WNW,291,0.0,0.0,91,0.00,,,0.00,WeatherCatV1.11B39,2013-07-27 10:41:00,
2013-07-27 06:46:00,61.0,58.3,29.85,WNW,291,0.0,0.0,91,0.00,,,0.00,WeatherCatV1.11B39,2013-07-27 10:46:00,
2013-07-27 06:51:00,61.3,58.6,29.85,WNW,291,0.0,0.0,91,0.00,,,0.00,WeatherCatV1.11B39,2013-07-27 10:51:00,
2013-07-27 06:56:00,61.5,58.8,29.85,WNW,291,0.0,0.0,91,0.00,,,0.00,WeatherCatV1.11B39,2013-07-27 10:56:00,
2013-07-27 07:01:00,61.5,58.5,29.85,WNW,291,0.0,0.0,90,0.00,,,0.00,WeatherCatV1.11B39,2013-07-27 11:01:00,
2013-07-27 07:06:00,61.8,58.8,29.85,WNW,291,0.0,0.0,90,0.00,,,0.00,WeatherCatV1.11B39,2013-07-27 11:06:00,
2013-07-27 07:11:00,62.0,59.0,29.85,WNW,291,0.0,0.0,90,0.00,,,0.00,WeatherCatV1.11B39,2013-07-27 11:11:00,
2013-07-27 07:16:00,62.1,59.1,29.85,WNW,291,0.0,0.0,90,0.00,,,0.00,WeatherCatV1.11B39,2013-07-27 11:16:00,
2013-07-27 07:21:00,62.3,59.3,29.86,WNW,291,0.0,0.0,90,0.00,,,0.00,WeatherCatV1.11B39,2013-07-27 11:21:00,
2013-07-27 07:26:00,62.4,59.7,29.86,WNW,291,0.0,0.0,91,0.00,,,0.00,WeatherCatV1.11B39,2013-07-27 11:26:00,
2013-07-27 07:31:00,62.6,59.6,29.85,WNW,291,0.0,0.0,90,0.00,,,0.00,WeatherCatV1.11B39,2013-07-27 11:31:00,
2013-07-27 07:36:00,62.6,59.6,29.86,WNW,291,0.0,0.0,90,0.00,,,0.00,WeatherCatV1.11B39,2013-07-27 11:36:00,
2013-07-27 07:41:00,62.9,59.6,29.85,WNW,292,0.0,0.0,89,0.00,,,0.00,WeatherCatV1.11B39,2013-07-27 11:41:00,
2013-07-27 07:46:00,63.1,60.1,29.85,WNW,287,0.0,0.0,90,0.00,,,0.00,WeatherCatV1.11B39,2013-07-27 11:46:00,
2013-07-27 07:51:00,63.2,60.2,29.86,WNW,287,0.0,0.0,90,0.00,,,0.00,WeatherCatV1.11B39,2013-07-27 11:51:00,
2013-07-27 07:56:00,63.4,60.4,29.86,WNW,287,0.0,0.0,90,0.00,,,0.00,WeatherCatV1.11B39,2013-07-27 11:56:00,
2013-07-27 08:01:00,63.5,60.5,29.86,WNW,287,0.0,0.0,90,0.00,,,0.00,WeatherCatV1.11B39,2013-07-27 12:01:00,
2013-07-27 08:06:00,63.7,60.7,29.86,WNW,287,0.0,0.0,90,0.00,,,0.00,WeatherCatV1.11B39,2013-07-27 12:06:00,
2013-07-27 08:11:00,64.2,61.2,29.87,WNW,287,0.0,0.0,90,0.00,,,0.00,WeatherCatV1.11B39,2013-07-27 12:11:00,
2013-07-27 08:16:00,64.8,61.8,29.86,WNW,287,0.0,0.0,90,0.00,,,0.00,WeatherCatV1.11B39,2013-07-27 12:16:00,
2013-07-27 08:21:00,65.5,62.5,29.87,WNW,286,0.0,0.0,90,0.00,,,0.00,WeatherCatV1.11B39,2013-07-27 12:21:00,
2013-07-27 08:26:00,66.1,62.8,29.86,West,281,0.0,0.0,89,0.00,,,0.00,WeatherCatV1.11B39,2013-07-27 12:26:00,
2013-07-27 08:31:00,66.4,62.7,29.87,West,280,0.0,0.0,88,0.00,,,0.00,WeatherCatV1.11B39,2013-07-27 12:31:00,
2013-07-27 08:36:00,66.8,62.5,29.86,West,280,0.0,0.0,86,0.00,,,0.00,WeatherCatV1.11B39,2013-07-27 12:36:00,
2013-07-27 08:41:00,67.4,63.1,29.87,West,280,0.0,0.0,86,0.00,,,0.00,WeatherCatV1.11B39,2013-07-27 12:41:00,
2013-07-27 08:46:00,67.9,62.9,29.87,West,280,0.0,0.0,84,0.00,,,0.00,WeatherCatV1.11B39,2013-07-27 12:46:00,
2013-07-27 08:51:00,68.2,62.8,29.87,West,280,0.0,0.0,83,0.00,,,0.00,WeatherCatV1.11B39,2013-07-27 12:51:00,
2013-07-27 08:56:00,68.8,63.1,29.86,West,280,0.0,0.0,82,0.00,,,0.00,WeatherCatV1.11B39,2013-07-27 12:56:00,
2013-07-27 09:01:00,69.1,63.4,29.87,West,280,0.0,0.0,82,0.00,,,0.00,WeatherCatV1.11B39,2013-07-27 13:01:00,
2013-07-27 09:06:00,69.4,63.0,29.87,West,280,0.0,0.0,80,0.00,,,0.00,WeatherCatV1.11B39,2013-07-27 13:06:00,
2013-07-27 09:11:00,70.1,62.9,29.87,West,280,0.0,0.0,78,0.00,,,0.00,WeatherCatV1.11B39,2013-07-27 13:11:00,
2013-07-27 09:16:00,70.6,63.4,29.87,West,280,0.0,0.0,78,0.00,,,0.00,WeatherCatV1.11B39,2013-07-27 13:16:00,
2013-07-27 09:21:00,70.9,63.7,29.87,West,280,0.0,0.0,78,0.00,,,0.00,WeatherCatV1.11B39,2013-07-27 13:21:00,
2013-07-27 09:26:00,71.4,63.4,29.87,West,280,0.0,0.0,76,0.00,,,0.00,WeatherCatV1.11B39,2013-07-27 13:26:00,
2013-07-27 09:31:00,71.9,63.9,29.87,NW,308,0.0,0.0,76,0.00,,,0.00,WeatherCatV1.11B39,2013-07-27 13:31:00,
2013-07-27 09:36:00,72.5,64.1,29.86,NW,308,0.0,0.0,75,0.00,,,0.00,WeatherCatV1.11B39,2013-07-27 13:36:00,
2013-07-27 09:41:00,72.9,64.9,29.87,NW,308,0.0,0.0,76,0.00,,,0.00,WeatherCatV1.11B39,2013-07-27 13:41:00,
2013-07-27 09:46:00,73.1,64.3,29.86,West,274,0.0,0.0,74,0.00,,,0.00,WeatherCatV1.11B39,2013-07-27 13:46:00,
2013-07-27 09:51:00,73.3,64.1,29.87,West,272,0.0,0.0,73,0.00,,,0.00,WeatherCatV1.11B39,2013-07-27 13:51:00,
2013-07-27 09:56:00,73.5,64.3,29.87,West,271,0.0,0.0,73,0.00,,,0.00,WeatherCatV1.11B39,2013-07-27 13:56:00,
2013-07-27 10:01:00,74.0,64.4,29.87,West,272,0.0,0.0,72,0.00,,,0.00,WeatherCatV1.11B39,2013-07-27 14:01:00,
2013-07-27 10:06:00,74.3,64.3,29.86,West,272,0.0,0.0,71,0.00,,,0.00,WeatherCatV1.11B39,2013-07-27 14:06:00,
2013-07-27 10:11:00,74.6,63.7,29.86,WSW,254,0.0,0.0,69,0.00,,,0.00,WeatherCatV1.11B39,2013-07-27 14:11:00,
2013-07-27 10:16:00,74.8,63.5,29.86,SW,227,0.0,1.0,68,0.00,,,0.00,WeatherCatV1.11B39,2013-07-27 14:16:00,
2013-07-27 10:21:00,74.8,63.1,29.87,WSW,241,0.0,0.0,67,0.00,,,0.00,WeatherCatV1.11B39,2013-07-27 14:21:00,
2013-07-27 10:26:00,75.0,62.9,29.87,WSW,241,0.0,0.0,66,0.00,,,0.00,WeatherCatV1.11B39,2013-07-27 14:26:00,
2013-07-27 10:31:00,75.2,62.6,29.86,WSW,241,0.0,0.0,65,0.00,,,0.00,WeatherCatV1.11B39,2013-07-27 14:31:00,
2013-07-27 10:36:00,75.4,61.9,29.86,WSW,240,0.0,0.0,63,0.00,,,0.00,WeatherCatV1.11B39,2013-07-27 14:36:00,
2013-07-27 10:41:00,75.5,62.9,29.86,WSW,240,0.0,0.0,65,0.00,,,0.00,WeatherCatV1.11B39,2013-07-27 14:41:00,
2013-07-27 10:46:00,76.1,63.5,29.86,WSW,240,0.0,0.0,65,0.00,,,0.00,WeatherCatV1.11B39,2013-07-27 14:46:00,
2013-07-27 10:51:00,76.4,63.7,29.86,WSW,240,0.0,0.0,65,0.00,,,0.00,WeatherCatV1.11B39,2013-07-27 14:51:00,
2013-07-27 10:56:00,76.8,64.1,29.86,WSW,240,0.0,0.0,65,0.00,,,0.00,WeatherCatV1.11B39,2013-07-27 14:56:00,
2013-07-27 11:01:00,76.8,63.7,29.86,WSW,248,0.0,4.0,64,0.00,,,0.00,WeatherCatV1.11B39,2013-07-27 15:01:00,
2013-07-27 11:06:00,76.8,64.1,29.86,WSW,247,0.0,0.0,65,0.00,,,0.00,WeatherCatV1.11B39,2013-07-27 15:06:00,
2013-07-27 11:11:00,76.6,63.0,29.86,WSW,246,0.0,0.0,63,0.00,,,0.00,WeatherCatV1.11B39,2013-07-27 15:11:00,
2013-07-27 11:16:00,76.6,62.6,29.86,WSW,246,0.0,0.0,62,0.00,,,0.00,WeatherCatV1.11B39,2013-07-27 15:16:00,
2013-07-27 11:21:00,76.6,62.6,29.86,WSW,246,0.0,0.0,62,0.00,,,0.00,WeatherCatV1.11B39,2013-07-27 15:21:00,
2013-07-27 11:26:00,76.4,61.5,29.87,West,265,0.0,0.0,60,0.00,,,0.00,WeatherCatV1.11B39,2013-07-27 15:26:00,
2013-07-27 11:31:00,76.1,61.7,29.87,SW,236,0.0,0.0,61,0.00,,,0.00,WeatherCatV1.11B39,2013-07-27 15:31:00,
2013-07-27 11:36:00,76.6,63.9,29.86,SW,236,0.0,0.0,65,0.00,,,0.00,WeatherCatV1.11B39,2013-07-27 15:36:00,
2013-07-27 11:41:00,76.8,62.3,29.86,WNW,294,0.0,0.0,61,0.00,,,0.00,WeatherCatV1.11B39,2013-07-27 15:41:00,
2013-07-27 11:46:00,76.6,63.0,29.86,WNW,297,0.0,0.0,63,0.00,,,0.00,WeatherCatV1.11B39,2013-07-27 15:46:00,
2013-07-27 11:51:00,76.4,61.5,29.86,WNW,297,0.0,0.0,60,0.00,,,0.00,WeatherCatV1.11B39,2013-07-27 15:51:00,
2013-07-27 11:56:00,76.2,60.8,29.87,WNW,297,0.0,0.0,59,0.00,,,0.00,WeatherCatV1.11B39,2013-07-27 15:56:00,
2013-07-27 12:01:00,76.7,60.3,29.86,West,265,0.0,0.0,57,0.00,,,0.00,WeatherCatV1.11B39,2013-07-27 16:01:00,
2013-07-27 12:06:00,77.7,59.2,29.86,SW,228,0.0,0.0,53,0.00,,,0.00,WeatherCatV1.11B39,2013-07-27 16:06:00,
2013-07-27 12:11:00,78.4,60.9,29.86,WSW,244,0.0,0.0,55,0.00,,,0.00,WeatherCatV1.11B39,2013-07-27 16:11:00,
2013-07-27 12:16:00,78.4,60.9,29.86,WSW,250,4.0,7.0,55,0.00,,,0.00,WeatherCatV1.11B39,2013-07-27 16:16:00,
2013-07-27 12:21:00,78.2,60.7,29.86,WSW,246,0.0,0.0,55,0.00,,,0.00,WeatherCatV1.11B39,2013-07-27 16:21:00,
2013-07-27 12:26:00,78.6,58.4,29.86,SW,234,3.0,5.0,50,0.00,,,0.00,WeatherCatV1.11B39,2013-07-27 16:26:00,
2013-07-27 12:31:00,78.5,59.4,29.86,WSW,253,2.0,5.0,52,0.00,,,0.00,WeatherCatV1.11B39,2013-07-27 16:31:00,
2013-07-27 12:36:00,78.6,58.9,29.86,WSW,253,0.0,0.0,51,0.00,,,0.00,WeatherCatV1.11B39,2013-07-27 16:36:00,
2013-07-27 12:41:00,78.7,59.6,29.85,WNW,292,0.0,2.0,52,0.00,,,0.00,WeatherCatV1.11B39,2013-07-27 16:41:00,
2013-07-27 12:46:00,79.1,61.0,29.86,WNW,292,0.0,0.0,54,0.00,,,0.00,WeatherCatV1.11B39,2013-07-27 16:46:00,
2013-07-27 12:51:00,79.3,60.1,29.85,WSW,246,0.0,6.0,52,0.00,,,0.00,WeatherCatV1.11B39,2013-07-27 16:51:00,
2013-07-27 12:56:00,78.9,59.8,29.85,WSW,238,0.0,0.0,52,0.00,,,0.00,WeatherCatV1.11B39,2013-07-27 16:56:00,
2013-07-27 13:01:00,78.7,60.1,29.85,WNW,290,3.0,7.0,53,0.00,,,0.00,WeatherCatV1.11B39,2013-07-27 17:01:00,
2013-07-27 13:06:00,78.9,58.7,29.85,WNW,293,0.0,0.0,50,0.00,,,0.00,WeatherCatV1.11B39,2013-07-27 17:06:00,
2013-07-27 13:11:00,79.3,58.5,29.85,WSW,245,0.0,1.0,49,0.00,,,0.00,WeatherCatV1.11B39,2013-07-27 17:11:00,
2013-07-27 13:16:00,79.1,60.5,29.85,West,272,0.0,1.0,53,0.00,,,0.00,WeatherCatV1.11B39,2013-07-27 17:16:00,
2013-07-27 13:21:00,79.1,59.9,29.85,WNW,292,0.0,1.0,52,0.00,,,0.00,WeatherCatV1.11B39,2013-07-27 17:21:00,
2013-07-27 13:26:00,78.9,60.3,29.85,WSW,251,0.0,0.0,53,0.00,,,0.00,WeatherCatV1.11B39,2013-07-27 17:26:00,
2013-07-27 13:31:00,78.9,60.3,29.85,WSW,249,0.0,0.0,53,0.00,,,0.00,WeatherCatV1.11B39,2013-07-27 17:31:00,
2013-07-27 13:36:00,79.1,59.4,29.85,WSW,252,0.0,7.0,51,0.00,,,0.00,WeatherCatV1.11B39,2013-07-27 17:36:00,
2013-07-27 13:41:00,79.1,59.9,29.84,West,259,0.0,5.0,52,0.00,,,0.00,WeatherCatV1.11B39,2013-07-27 17:41:00,
2013-07-27 13:46:00,78.9,58.7,29.84,WSW,246,0.0,6.0,50,0.00,,,0.00,WeatherCatV1.11B39,2013-07-27 17:46:00,
2013-07-27 13:51:00,79.1,60.5,29.84,WSW,251,0.0,4.0,53,0.00,,,0.00,WeatherCatV1.11B39,2013-07-27 17:51:00,
2013-07-27 13:56:00,79.5,62.9,29.84,WSW,254,0.0,0.0,57,0.00,,,0.00,WeatherCatV1.11B39,2013-07-27 17:56:00,
2013-07-27 14:01:00,79.5,60.3,29.85,NW,325,0.0,4.0,52,0.00,,,0.00,WeatherCatV1.11B39,2013-07-27 18:01:00,
2013-07-27 14:06:00,79.1,60.5,29.84,NW,317,4.0,5.0,53,0.00,,,0.00,WeatherCatV1.11B39,2013-07-27 18:06:00,
2013-07-27 14:11:00,78.9,60.3,29.84,WSW,252,0.0,3.0,53,0.00,,,0.00,WeatherCatV1.11B39,2013-07-27 18:11:00,
2013-07-27 14:16:00,78.9,61.8,29.85,WSW,245,0.0,0.0,56,0.00,,,0.00,WeatherCatV1.11B39,2013-07-27 18:16:00,
2013-07-27 14:21:00,78.9,60.3,29.84,West,272,0.0,6.0,53,0.00,,,0.00,WeatherCatV1.11B39,2013-07-27 18:21:00,
2013-07-27 14:26:00,79.1,61.5,29.83,West,281,0.0,0.0,55,0.00,,,0.00,WeatherCatV1.11B39,2013-07-27 18:26:00,
2013-07-27 14:31:00,79.5,60.3,29.84,WNW,291,5.0,6.0,52,0.00,,,0.00,WeatherCatV1.11B39,2013-07-27 18:31:00,
2013-07-27 14:36:00,79.3,60.1,29.84,WSW,253,0.0,5.0,52,0.00,,,0.00,WeatherCatV1.11B39,2013-07-27 18:36:00,
2013-07-27 14:41:00,79.5,60.3,29.84,WSW,249,2.0,5.0,52,0.00,,,0.00,WeatherCatV1.11B39,2013-07-27 18:41:00,
2013-07-27 14:46:00,79.3,59.0,29.84,WSW,256,2.0,5.0,50,0.00,,,0.00,WeatherCatV1.11B39,2013-07-27 18:46:00,
2013-07-27 14:51:00,79.5,58.1,29.84,West,261,0.0,0.0,48,0.00,,,0.00,WeatherCatV1.11B39,2013-07-27 18:51:00,
2013-07-27 14:56:00,79.7,59.4,29.84,WSW,243,0.0,0.0,50,0.00,,,0.00,WeatherCatV1.11B39,2013-07-27 18:56:00,
2013-07-27 15:01:00,79.9,58.4,29.84,WSW,237,0.0,8.0,48,0.00,,,0.00,WeatherCatV1.11B39,2013-07-27 19:01:00,
2013-07-27 15:06:00,79.9,59.6,29.84,WNW,289,0.0,6.0,50,0.00,,,0.00,WeatherCatV1.11B39,2013-07-27 19:06:00,
2013-07-27 15:11:00,79.7,59.4,29.84,WSW,252,0.0,1.0,50,0.00,,,0.00,WeatherCatV1.11B39,2013-07-27 19:11:00,
2013-07-27 15:16:00,79.7,59.9,29.83,WNW,298,0.0,0.0,51,0.00,,,0.00,WeatherCatV1.11B39,2013-07-27 19:16:00,
2013-07-27 15:21:00,79.9,59.6,29.83,WNW,292,4.0,4.0,50,0.00,,,0.00,WeatherCatV1.11B39,2013-07-27 19:21:00,
2013-07-27 15:26:00,79.9,59.0,29.83,WNW,293,0.0,5.0,49,0.00,,,0.00,WeatherCatV1.11B39,2013-07-27 19:26:00,
2013-07-27 15:31:00,79.9,61.2,29.83,WSW,242,0.0,0.0,53,0.00,,,0.00,WeatherCatV1.11B39,2013-07-27 19:31:00,
2013-07-27 15:36:00,79.6,59.3,29.83,WSW,242,0.0,6.0,50,0.00,,,0.00,WeatherCatV1.11B39,2013-07-27 19:36:00,
2013-07-27 15:41:00,79.5,59.2,29.83,WSW,251,0.0,0.0,50,0.00,,,0.00,WeatherCatV1.11B39,2013-07-27 19:41:00,
2013-07-27 15:46:00,79.7,60.5,29.84,WSW,246,0.0,0.0,52,0.00,,,0.00,WeatherCatV1.11B39,2013-07-27 19:46:00,
2013-07-27 15:51:00,79.7,60.5,29.83,WSW,245,0.0,4.0,52,0.00,,,0.00,WeatherCatV1.11B39,2013-07-27 19:51:00,
2013-07-27 15:56:00,79.7,59.9,29.83,WNW,290,0.0,1.0,51,0.00,,,0.00,WeatherCatV1.11B39,2013-07-27 19:56:00,
2013-07-27 16:01:00,79.7,61.0,29.84,West,259,0.0,0.0,53,0.00,,,0.00,WeatherCatV1.11B39,2013-07-27 20:01:00,
2013-07-27 16:06:00,79.6,60.9,29.83,WSW,257,0.0,0.0,53,0.00,,,0.00,WeatherCatV1.11B39,2013-07-27 20:06:00,
2013-07-27 16:11:00,79.7,60.5,29.83,WNW,288,0.0,0.0,52,0.00,,,0.00,WeatherCatV1.11B39,2013-07-27 20:11:00,
2013-07-27 16:16:00,79.5,60.3,29.83,West,279,0.0,0.0,52,0.00,,,0.00,WeatherCatV1.11B39,2013-07-27 20:16:00,
2013-07-27 16:21:00,79.7,61.6,29.83,WSW,244,0.0,0.0,54,0.00,,,0.00,WeatherCatV1.11B39,2013-07-27 20:21:00,
2013-07-27 16:26:00,79.7,61.0,29.82,WSW,244,0.0,0.0,53,0.00,,,0.00,WeatherCatV1.11B39,2013-07-27 20:26:00,
2013-07-27 16:31:00,79.7,60.5,29.82,WSW,242,0.0,4.0,52,0.00,,,0.00,WeatherCatV1.11B39,2013-07-27 20:31:00,
2013-07-27 16:36:00,79.7,61.0,29.82,WSW,250,2.0,5.0,53,0.00,,,0.00,WeatherCatV1.11B39,2013-07-27 20:36:00,
2013-07-27 16:41:00,79.7,61.6,29.82,West,266,0.0,1.0,54,0.00,,,0.00,WeatherCatV1.11B39,2013-07-27 20:41:00,
2013-07-27 16:46:00,79.9,60.7,29.82,WSW,252,0.0,0.0,52,0.00,,,0.00,WeatherCatV1.11B39,2013-07-27 20:46:00,
2013-07-27 16:51:00,79.7,60.5,29.82,West,268,0.0,1.0,52,0.00,,,0.00,WeatherCatV1.11B39,2013-07-27 20:51:00,
2013-07-27 16:56:00,79.5,61.9,29.82,WSW,257,0.0,0.0,55,0.00,,,0.00,WeatherCatV1.11B39,2013-07-27 20:56:00,
2013-07-27 17:01:00,79.3,60.7,29.82,SW,236,0.0,0.0,53,0.00,,,0.00,WeatherCatV1.11B39,2013-07-27 21:01:00,
2013-07-27 17:06:00,78.9,62.3,29.82,WSW,254,1.0,5.0,57,0.00,,,0.00,WeatherCatV1.11B39,2013-07-27 21:06:00,
2013-07-27 17:12:00,78.7,60.1,29.82,WSW,247,0.0,0.0,53,0.00,,,0.00,WeatherCatV1.11B39,2013-07-27 21:12:00,
2013-07-27 17:17:00,78.7,60.6,29.82,WSW,243,0.0,1.0,54,0.00,,,0.00,WeatherCatV1.11B39,2013-07-27 21:17:00,
2013-07-27 17:22:00,78.9,60.3,29.82,WSW,242,0.0,0.0,53,0.00,,,0.00,WeatherCatV1.11B39,2013-07-27 21:22:00,
2013-07-27 17:27:00,79.3,61.7,29.82,WSW,242,0.0,0.0,55,0.00,,,0.00,WeatherCatV1.11B39,2013-07-27 21:27:00,
2013-07-27 17:32:00,79.3,61.7,29.82,SW,236,0.0,0.0,55,0.00,,,0.00,WeatherCatV1.11B39,2013-07-27 21:32:00,
2013-07-27 17:37:00,79.1,62.0,29.82,West,262,0.0,0.0,56,0.00,,,0.00,WeatherCatV1.11B39,2013-07-27 21:37:00,
2013-07-27 17:42:00,79.1,61.5,29.82,WSW,258,0.0,0.0,55,0.00,,,0.00,WeatherCatV1.11B39,2013-07-27 21:42:00,
2013-07-27 17:47:00,78.9,62.8,29.82,WSW,258,0.0,0.0,58,0.00,,,0.00,WeatherCatV1.11B39,2013-07-27 21:47:00,
2013-07-27 17:52:00,78.9,61.8,29.82,WSW,257,0.0,0.0,56,0.00,,,0.00,WeatherCatV1.11B39,2013-07-27 21:52:00,
2013-07-27 17:57:00,78.9,62.3,29.82,WSW,257,0.0,0.0,57,0.00,,,0.00,WeatherCatV1.11B39,2013-07-27 21:57:00,
2013-07-27 18:02:00,78.7,63.6,29.81,WSW,257,0.0,0.0,60,0.00,,,0.00,WeatherCatV1.11B39,2013-07-27 22:02:00,
2013-07-27 18:07:00,78.4,63.8,29.82,WSW,257,0.0,0.0,61,0.00,,,0.00,WeatherCatV1.11B39,2013-07-27 22:07:00,
2013-07-27 18:12:00,78.2,63.6,29.81,WSW,257,0.0,0.0,61,0.00,,,0.00,WeatherCatV1.11B39,2013-07-27 22:12:00,
2013-07-27 18:17:00,78.4,63.3,29.81,WSW,257,0.0,0.0,60,0.00,,,0.00,WeatherCatV1.11B39,2013-07-27 22:17:00,
2013-07-27 18:22:00,78.4,62.9,29.82,WSW,257,0.0,0.0,59,0.00,,,0.00,WeatherCatV1.11B39,2013-07-27 22:22:00,
2013-07-27 18:27:00,78.4,64.3,29.81,WSW,257,0.0,0.0,62,0.00,,,0.00,WeatherCatV1.11B39,2013-07-27 22:27:00,
2013-07-27 18:32:00,78.2,63.6,29.81,WSW,257,0.0,0.0,61,0.00,,,0.00,WeatherCatV1.11B39,2013-07-27 22:32:00,
2013-07-27 18:37:00,78.4,65.2,29.81,WSW,257,0.0,0.0,64,0.00,,,0.00,WeatherCatV1.11B39,2013-07-27 22:37:00,
2013-07-27 18:42:00,78.0,65.3,29.81,WSW,257,0.0,0.0,65,0.00,,,0.00,WeatherCatV1.11B39,2013-07-27 22:42:00,
2013-07-27 18:47:00,78.0,64.4,29.81,WSW,257,0.0,0.0,63,0.00,,,0.00,WeatherCatV1.11B39,2013-07-27 22:47:00,
2013-07-27 18:52:00,77.8,63.3,29.81,WSW,258,0.0,0.0,61,0.00,,,0.00,WeatherCatV1.11B39,2013-07-27 22:52:00,
2013-07-27 18:57:00,77.8,63.7,29.81,WSW,258,0.0,0.0,62,0.00,,,0.00,WeatherCatV1.11B39,2013-07-27 22:57:00,
2013-07-27 19:02:00,77.6,63.5,29.81,WSW,257,0.0,0.0,62,0.00,,,0.00,WeatherCatV1.11B39,2013-07-27 23:02:00,
2013-07-27 19:07:00,77.3,63.2,29.81,WSW,257,0.0,0.0,62,0.00,,,0.00,WeatherCatV1.11B39,2013-07-27 23:07:00,
2013-07-27 19:12:00,77.0,63.0,29.82,WSW,245,0.0,0.0,62,0.00,,,0.00,WeatherCatV1.11B39,2013-07-27 23:12:00,
2013-07-27 19:17:00,76.8,62.8,29.82,WSW,245,0.0,0.0,62,0.00,,,0.00,WeatherCatV1.11B39,2013-07-27 23:17:00,
2013-07-27 19:22:00,76.6,63.5,29.82,WSW,244,0.0,0.0,64,0.00,,,0.00,WeatherCatV1.11B39,2013-07-27 23:22:00,
2013-07-27 19:27:00,76.2,64.0,29.82,WSW,244,0.0,0.0,66,0.00,,,0.00,WeatherCatV1.11B39,2013-07-27 23:27:00,
2013-07-27 19:32:00,75.9,63.7,29.82,WSW,245,0.0,0.0,66,0.00,,,0.00,WeatherCatV1.11B39,2013-07-27 23:32:00,
2013-07-27 19:37:00,75.7,63.9,29.82,WSW,244,0.0,0.0,67,0.00,,,0.00,WeatherCatV1.11B39,2013-07-27 23:37:00,
2013-07-27 19:42:00,75.5,64.2,29.82,WSW,244,0.0,0.0,68,0.00,,,0.00,WeatherCatV1.11B39,2013-07-27 23:42:00,
2013-07-27 19:47:00,75.3,64.0,29.82,WSW,244,0.0,0.0,68,0.00,,,0.00,WeatherCatV1.11B39,2013-07-27 23:47:00,
2013-07-27 19:52:00,75.2,64.3,29.83,WSW,244,0.0,0.0,69,0.00,,,0.00,WeatherCatV1.11B39,2013-07-27 23:52:00,
2013-07-27 19:57:00,75.0,64.1,29.82,WSW,244,0.0,0.0,69,0.00,,,0.00,WeatherCatV1.11B39,2013-07-27 23:57:00,
2013-07-27 20:02:00,75.0,64.5,29.83,WSW,244,0.0,0.0,70,0.00,,,0.00,WeatherCatV1.11B39,2013-07-28 00:02:00,
2013-07-27 20:07:00,74.8,64.3,29.82,WSW,250,0.0,0.0,70,0.00,,,0.00,WeatherCatV1.11B39,2013-07-28 00:07:00,
2013-07-27 20:12:00,74.6,63.7,29.82,WSW,251,0.0,0.0,69,0.00,,,0.00,WeatherCatV1.11B39,2013-07-28 00:12:00,
2013-07-27 20:17:00,74.4,63.1,29.83,WSW,249,0.0,0.0,68,0.00,,,0.00,WeatherCatV1.11B39,2013-07-28 00:17:00,
2013-07-27 20:22:00,74.3,63.5,29.82,WSW,249,0.0,0.0,69,0.00,,,0.00,WeatherCatV1.11B39,2013-07-28 00:22:00,
2013-07-27 20:27:00,74.1,63.3,29.82,West,260,0.0,1.0,69,0.00,,,0.00,WeatherCatV1.11B39,2013-07-28 00:27:00,
2013-07-27 20:32:00,74.0,63.2,29.83,WSW,243,0.0,0.0,69,0.00,,,0.00,WeatherCatV1.11B39,2013-07-28 00:32:00,
2013-07-27 20:37:00,73.8,63.4,29.83,WSW,240,0.0,0.0,70,0.00,,,0.00,WeatherCatV1.11B39,2013-07-28 00:37:00,
2013-07-27 20:42:00,73.6,63.2,29.83,WSW,241,0.0,1.0,70,0.00,,,0.00,WeatherCatV1.11B39,2013-07-28 00:42:00,
2013-07-27 20:47:00,73.4,63.0,29.83,WSW,244,0.0,0.0,70,0.00,,,0.00,WeatherCatV1.11B39,2013-07-28 00:47:00,
2013-07-27 20:52:00,73.3,63.3,29.83,WSW,256,0.0,0.0,71,0.00,,,0.00,WeatherCatV1.11B39,2013-07-28 00:52:00,
2013-07-27 20:57:00,73.1,63.5,29.83,WSW,253,0.0,0.0,72,0.00,,,0.00,WeatherCatV1.11B39,2013-07-28 00:57:00,
2013-07-27 21:02:00,72.9,63.3,29.83,West,271,4.0,4.0,72,0.00,,,0.00,WeatherCatV1.11B39,2013-07-28 01:02:00,
2013-07-27 21:07:00,72.9,63.7,29.83,WSW,252,0.0,0.0,73,0.00,,,0.00,WeatherCatV1.11B39,2013-07-28 01:07:00,
2013-07-27 21:12:00,72.6,63.8,29.83,WSW,252,0.0,0.0,74,0.00,,,0.00,WeatherCatV1.11B39,2013-07-28 01:12:00,
2013-07-27 21:17:00,72.4,63.6,29.83,WSW,252,0.0,0.0,74,0.00,,,0.00,WeatherCatV1.11B39,2013-07-28 01:17:00,
2013-07-27 21:22:00,72.3,64.3,29.83,WSW,250,0.0,0.0,76,0.00,,,0.00,WeatherCatV1.11B39,2013-07-28 01:22:00,
2013-07-27 21:27:00,72.1,64.1,29.83,WSW,250,0.0,0.0,76,0.00,,,0.00,WeatherCatV1.11B39,2013-07-28 01:27:00,
2013-07-27 21:32:00,71.7,64.1,29.83,WSW,250,0.0,0.0,77,0.00,,,0.00,WeatherCatV1.11B39,2013-07-28 01:32:00,
2013-07-27 21:37:00,71.6,64.0,29.83,WSW,250,0.0,0.0,77,0.00,,,0.00,WeatherCatV1.11B39,2013-07-28 01:37:00,
2013-07-27 21:42:00,71.4,64.2,29.83,WSW,246,0.0,0.0,78,0.00,,,0.00,WeatherCatV1.11B39,2013-07-28 01:42:00,
2013-07-27 21:47:00,71.2,64.3,29.84,WSW,246,0.0,1.0,79,0.00,,,0.00,WeatherCatV1.11B39,2013-07-28 01:47:00,
2013-07-27 21:52:00,71.1,64.6,29.84,WSW,258,0.0,5.0,80,0.00,,,0.00,WeatherCatV1.11B39,2013-07-28 01:52:00,
2013-07-27 21:57:00,70.9,64.4,29.84,WSW,243,0.0,0.0,80,0.00,,,0.00,WeatherCatV1.11B39,2013-07-28 01:57:00,
2013-07-27 22:02:00,70.7,63.9,29.84,WSW,248,2.0,3.0,79,0.00,,,0.00,WeatherCatV1.11B39,2013-07-28 02:02:00,
2013-07-27 22:07:00,70.6,64.1,29.84,WSW,246,0.0,0.0,80,0.00,,,0.00,WeatherCatV1.11B39,2013-07-28 02:07:00,
2013-07-27 22:12:00,70.4,63.9,29.84,WSW,246,0.0,0.0,80,0.00,,,0.00,WeatherCatV1.11B39,2013-07-28 02:12:00,
2013-07-27 22:17:00,70.4,63.9,29.84,WSW,246,0.0,0.0,80,0.00,,,0.00,WeatherCatV1.11B39,2013-07-28 02:17:00,
2013-07-27 22:22:00,70.1,64.0,29.84,WSW,246,0.0,0.0,81,0.00,,,0.00,WeatherCatV1.11B39,2013-07-28 02:22:00,
2013-07-27 22:27:00,70.1,64.3,29.84,SW,235,0.0,1.0,82,0.00,,,0.00,WeatherCatV1.11B39,2013-07-28 02:27:00,
2013-07-27 22:32:00,69.9,64.1,29.84,SW,236,0.0,0.0,82,0.00,,,0.00,WeatherCatV1.11B39,2013-07-28 02:32:00,
2013-07-27 22:37:00,69.7,63.9,29.84,SW,235,0.0,0.0,82,0.00,,,0.00,WeatherCatV1.11B39,2013-07-28 02:37:00,
2013-07-27 22:42:00,69.6,63.9,29.85,SW,235,0.0,0.0,82,0.00,,,0.00,WeatherCatV1.11B39,2013-07-28 02:42:00,
2013-07-27 22:47:00,69.4,63.7,29.84,SW,235,0.0,0.0,82,0.00,,,0.00,WeatherCatV1.11B39,2013-07-28 02:47:00,
2013-07-27 22:52:00,69.2,63.8,29.85,SW,235,0.0,1.0,83,0.00,,,0.00,WeatherCatV1.11B39,2013-07-28 02:52:00,
2013-07-27 22:57:00,69.1,63.7,29.84,SW,235,0.0,0.0,83,0.00,,,0.00,WeatherCatV1.11B39,2013-07-28 02:57:00,
2013-07-27 23:02:00,69.1,63.7,29.84,SW,235,0.0,0.0,83,0.00,,,0.00,WeatherCatV1.11B39,2013-07-28 03:02:00,
2013-07-27 23:07:00,69.1,64.1,29.84,SW,235,0.0,0.0,84,0.00,,,0.00,WeatherCatV1.11B39,2013-07-28 03:07:00,
2013-07-27 23:12:00,68.9,64.2,29.84,WSW,246,0.0,0.0,85,0.00,,,0.00,WeatherCatV1.11B39,2013-07-28 03:12:00,
2013-07-27 23:17:00,68.9,63.9,29.84,WSW,250,4.0,4.0,84,0.00,,,0.00,WeatherCatV1.11B39,2013-07-28 03:17:00,
2013-07-27 23:22:00,68.9,64.2,29.84,WSW,242,0.0,0.0,85,0.00,,,0.00,WeatherCatV1.11B39,2013-07-28 03:22:00,
2013-07-27 23:27:00,68.7,63.7,29.84,WSW,242,0.0,0.0,84,0.00,,,0.00,WeatherCatV1.11B39,2013-07-28 03:27:00,
2013-07-27 23:32:00,68.6,63.6,29.83,WSW,242,0.0,0.0,84,0.00,,,0.00,WeatherCatV1.11B39,2013-07-28 03:32:00,
2013-07-27 23:37:00,68.6,63.6,29.84,WSW,242,0.0,0.0,84,0.00,,,0.00,WeatherCatV1.11B39,2013-07-28 03:37:00,
2013-07-27 23:42:00,68.2,63.2,29.83,WSW,242,0.0,0.0,84,0.00,,,0.00,WeatherCatV1.11B39,2013-07-28 03:42:00,
2013-07-27 23:47:00,68.1,63.1,29.83,WSW,242,0.0,0.0,84,0.00,,,0.00,WeatherCatV1.11B39,2013-07-28 03:47:00,
2013-07-27 23:52:00,67.7,62.7,29.83,WSW,242,0.0,0.0,84,0.00,,,0.00,WeatherCatV1.11B39,2013-07-28 03:52:00,
2013-07-27 23:57:00,67.6,62.6,29.83,WSW,242,0.0,0.0,84,0.00,,,0.00,WeatherCatV1.11B39,2013-07-28 03:57:00,